Terminal Aerodrome Forecast
Issued by NWS Wichita, KS

Home | Current Version | Previous Version | Graphics & Text | Print | Product List | Glossary On
Versions: 1 2 3 4 5 6 7 8 9 10 11 12 13 14 15 16 17 18 19 20 21 22 23 24 25
000
FTUS43 KICT 261122
TAFICT
TAF
KICT 261122Z 2612/2712 16015G22KT P6SM SCT014 OVC022
      TEMPO 2612/2614 OVC014
     FM261700 17019G26KT P6SM BKN030
     FM262200 16020G28KT P6SM VCTS SCT035CB BKN200
      TEMPO 2700/2704 3SM +TSRA OVC025CB
     FM270600 20013KT P6SM SCT150=

USA.gov is the U.S. government's official web portal to all federal, state and local government web resources and services.